Time;durP1;ratioP1;P1;durP2;ratioP2;P2;SDS_P1;SDS_P2;PMS_P1;PMS_P2;Temp;Humidity;BMP_temperature;BMP_pressure;BME280_temperature;BME280_humidity;BME280_pressure;Samples;Min_cycle;Max_cycle;Signal;HPM_P1;HPM_P2
2021/11/06 00:00:13;;;;;;;;;;;16.30;69.90;;;;;;4231251;28;19939;-74
2021/11/06 00:02:19;;;;;;;;;;;16.30;70.00;;;;;;4261056;27;19926;-75
2021/11/06 00:04:22;;;;;;;;;;;16.30;69.90;;;;;;4248003;27;19965;-74
2021/11/06 00:06:25;;;;;;;;;;;16.30;69.90;;;;;;4251958;27;19930;-74
2021/11/06 00:08:27;;;;;;;;;;;16.30;70.00;;;;;;4237821;27;20413;-74
2021/11/06 00:10:30;;;;;;;;;;;16.30;70.00;;;;;;4247661;27;19919;-74
2021/11/06 00:12:33;;;;;;;;;;;16.30;70.00;;;;;;4260226;27;19919;-74
2021/11/06 00:14:36;;;;;;;;;;;16.30;70.00;;;;;;4229643;28;19920;-74
2021/11/06 00:16:38;;;;;;;;;;;16.30;70.00;;;;;;4250814;27;19926;-74
2021/11/06 00:18:42;;;;;;;;;;;16.30;70.00;;;;;;4257310;27;19923;-73
2021/11/06 00:20:45;;;;;;;;;;;16.30;70.00;;;;;;4247494;27;20355;-73
2021/11/06 00:22:48;;;;;;;;;;;16.30;70.00;;;;;;4240867;27;19931;-74
2021/11/06 00:24:50;;;;;;;;;;;16.20;70.00;;;;;;4248171;27;19919;-73
2021/11/06 00:26:53;;;;;;;;;;;16.30;70.00;;;;;;4249682;27;19972;-74
2021/11/06 00:28:56;;;;;;;;;;;16.20;69.90;;;;;;4257566;27;19926;-74
2021/11/06 00:30:59;;;;;;;;;;;16.20;69.90;;;;;;4246880;27;19919;-74
2021/11/06 00:33:01;;;;;;;;;;;16.20;70.00;;;;;;4257991;27;19926;-73
2021/11/06 00:35:08;;;;;;;;;;;16.20;69.90;;;;;;4249261;27;20327;-74
2021/11/06 00:37:10;;;;;;;;;;;16.20;70.00;;;;;;4252353;27;19926;-73
2021/11/06 00:39:13;;;;;;;;;;;16.20;70.50;;;;;;4236469;27;19923;-73
2021/11/06 00:41:16;;;;;;;;;;;16.20;70.00;;;;;;4258481;27;19926;-73
2021/11/06 00:43:18;;;;;;;;;;;16.20;69.90;;;;;;4258778;27;19919;-74
2021/11/06 00:45:21;;;;;;;;;;;16.20;70.00;;;;;;4248003;27;19988;-73
2021/11/06 00:47:24;;;;;;;;;;;16.20;69.90;;;;;;4264244;27;20295;-73
2021/11/06 00:49:30;;;;;;;;;;;16.20;69.90;;;;;;4238225;27;20430;-74
2021/11/06 00:51:35;;;;;;;;;;;16.20;69.90;;;;;;4252002;27;20003;-74
2021/11/06 00:53:38;;;;;;;;;;;16.10;69.90;;;;;;4263845;27;19922;-73
2021/11/06 00:55:40;;;;;;;;;;;16.20;69.90;;;;;;4266852;27;20378;-74
2021/11/06 00:57:43;;;;;;;;;;;16.20;70.30;;;;;;4261313;27;19937;-76
2021/11/06 00:59:46;;;;;;;;;;;16.10;69.90;;;;;;4253848;27;19919;-74
2021/11/06 01:01:51;;;;;;;;;;;16.20;69.90;;;;;;4266794;27;19922;-73
2021/11/06 01:03:54;;;;;;;;;;;16.10;69.80;;;;;;4258902;27;19919;-74
2021/11/06 01:05:57;;;;;;;;;;;16.10;69.80;;;;;;4263620;27;19938;-74
2021/11/06 01:08:01;;;;;;;;;;;16.10;69.80;;;;;;4265069;27;20520;-73
2021/11/06 01:10:05;;;;;;;;;;;16.10;69.90;;;;;;4254522;27;19937;-74
2021/11/06 01:12:08;;;;;;;;;;;16.10;70.00;;;;;;4266539;27;19922;-73
2021/11/06 01:14:11;;;;;;;;;;;16.10;69.80;;;;;;4260773;27;20405;-73
2021/11/06 01:16:14;;;;;;;;;;;16.10;69.90;;;;;;4250433;27;20388;-74
2021/11/06 01:18:17;;;;;;;;;;;16.10;70.00;;;;;;4248264;27;19919;-74
2021/11/06 01:20:20;;;;;;;;;;;16.10;69.80;;;;;;4258200;27;19920;-74
2021/11/06 01:22:22;;;;;;;;;;;16.10;69.80;;;;;;4246772;27;19927;-74
2021/11/06 01:24:27;;;;;;;;;;;16.10;69.80;;;;;;4232993;27;20341;-74
2021/11/06 01:26:29;;;;;;;;;;;16.00;69.80;;;;;;4260528;27;19919;-74
2021/11/06 01:28:32;;;;;;;;;;;16.10;69.80;;;;;;4263170;27;19926;-74
2021/11/06 01:30:35;;;;;;;;;;;16.10;69.90;;;;;;4258552;27;19919;-74
2021/11/06 01:32:38;;;;;;;;;;;16.00;69.80;;;;;;4246789;27;19920;-74
2021/11/06 01:34:41;;;;;;;;;;;16.00;69.80;;;;;;4253496;27;19919;-74
2021/11/06 01:36:44;;;;;;;;;;;16.00;69.80;;;;;;4252077;27;19942;-74
2021/11/06 01:38:46;;;;;;;;;;;16.00;69.70;;;;;;4248117;27;19926;-74
2021/11/06 01:40:51;;;;;;;;;;;16.00;69.80;;;;;;4260268;27;19934;-74
2021/11/06 01:42:54;;;;;;;;;;;16.00;69.80;;;;;;4266952;27;19972;-75
2021/11/06 01:44:56;;;;;;;;;;;16.00;69.80;;;;;;4262260;27;19926;-74
2021/11/06 01:46:59;;;;;;;;;;;16.00;69.80;;;;;;4256126;27;19923;-75
2021/11/06 01:49:02;;;;;;;;;;;16.00;69.80;;;;;;4258248;27;19919;-74
2021/11/06 01:51:05;;;;;;;;;;;16.00;69.80;;;;;;4262202;27;19919;-74
2021/11/06 01:53:08;;;;;;;;;;;16.00;69.80;;;;;;4250635;27;19968;-74
2021/11/06 01:55:10;;;;;;;;;;;15.90;69.80;;;;;;4255940;27;19919;-73
2021/11/06 01:57:14;;;;;;;;;;;16.00;69.80;;;;;;4257414;27;19927;-74
2021/11/06 01:59:17;;;;;;;;;;;15.90;69.80;;;;;;4250017;27;19919;-74
2021/11/06 02:01:20;;;;;;;;;;;16.00;69.80;;;;;;4262326;27;19919;-74
2021/11/06 02:03:23;;;;;;;;;;;16.00;69.80;;;;;;4249980;27;19972;-74
2021/11/06 02:05:25;;;;;;;;;;;15.90;69.80;;;;;;4236014;27;19919;-74
2021/11/06 02:07:28;;;;;;;;;;;16.00;69.80;;;;;;4257707;27;19927;-74
2021/11/06 02:09:31;;;;;;;;;;;15.90;69.80;;;;;;4232304;28;20343;-74
2021/11/06 02:11:34;;;;;;;;;;;15.90;69.80;;;;;;4263398;27;19922;-73
2021/11/06 02:13:39;;;;;;;;;;;15.90;69.80;;;;;;4250160;27;20372;-74
2021/11/06 02:15:41;;;;;;;;;;;15.90;69.70;;;;;;4234949;27;19993;-73
2021/11/06 02:17:45;;;;;;;;;;;15.90;69.70;;;;;;4257923;27;20390;-75
2021/11/06 02:19:47;;;;;;;;;;;15.90;70.10;;;;;;4249561;27;19927;-74
2021/11/06 02:21:53;;;;;;;;;;;15.90;69.80;;;;;;4261369;27;19926;-73
2021/11/06 02:23:55;;;;;;;;;;;15.90;69.70;;;;;;4249189;27;20287;-75
2021/11/06 02:25:58;;;;;;;;;;;15.90;69.80;;;;;;4252231;27;19919;-74
2021/11/06 02:28:21;;;;;;;;;;;15.90;69.70;;;;;;4255359;27;19926;-74
2021/11/06 02:30:23;;;;;;;;;;;15.90;69.80;;;;;;4249812;27;20414;-74
2021/11/06 02:32:26;;;;;;;;;;;15.90;69.80;;;;;;4260890;27;19918;-75
2021/11/06 02:34:29;;;;;;;;;;;15.90;69.80;;;;;;4249045;27;20395;-73
2021/11/06 02:36:32;;;;;;;;;;;15.90;69.80;;;;;;4254619;27;19919;-74
2021/11/06 02:38:36;;;;;;;;;;;15.80;69.70;;;;;;4256617;27;19919;-73
2021/11/06 02:40:39;;;;;;;;;;;15.80;69.70;;;;;;4249244;27;20371;-74
2021/11/06 02:42:42;;;;;;;;;;;15.80;69.80;;;;;;4253284;27;19924;-74
2021/11/06 02:44:45;;;;;;;;;;;15.80;69.70;;;;;;4266254;27;19919;-74
2021/11/06 02:46:48;;;;;;;;;;;15.80;69.70;;;;;;4261890;27;19926;-74
2021/11/06 02:48:51;;;;;;;;;;;15.80;69.70;;;;;;4264461;27;20077;-74
2021/11/06 02:50:54;;;;;;;;;;;15.80;69.70;;;;;;4249621;27;19926;-74
2021/11/06 02:52:56;;;;;;;;;;;15.80;69.70;;;;;;4261498;27;19919;-74
2021/11/06 02:55:00;;;;;;;;;;;15.80;69.70;;;;;;4250139;27;19946;-74
2021/11/06 02:57:04;;;;;;;;;;;15.80;69.70;;;;;;4252968;27;19973;-74
2021/11/06 02:59:06;;;;;;;;;;;15.80;69.70;;;;;;4257222;27;20379;-74
2021/11/06 03:01:10;;;;;;;;;;;15.80;69.70;;;;;;4249016;27;19919;-74
2021/11/06 03:03:13;;;;;;;;;;;15.80;69.70;;;;;;4261152;27;19919;-74
2021/11/06 03:05:16;;;;;;;;;;;15.80;69.60;;;;;;4231250;27;19924;-74
2021/11/06 03:07:19;;;;;;;;;;;15.80;69.70;;;;;;4254751;27;19930;-74
2021/11/06 03:09:23;;;;;;;;;;;15.70;69.60;;;;;;4270364;27;20368;-73
2021/11/06 03:11:28;;;;;;;;;;;15.80;69.70;;;;;;4266427;27;19918;-74
2021/11/06 03:13:31;;;;;;;;;;;15.80;69.70;;;;;;4253551;27;19919;-73
2021/11/06 03:15:34;;;;;;;;;;;15.80;69.70;;;;;;4264758;27;20397;-73
2021/11/06 03:17:37;;;;;;;;;;;15.80;69.70;;;;;;4262502;27;19923;-74
2021/11/06 03:19:40;;;;;;;;;;;15.80;69.60;;;;;;4255607;27;19919;-74
2021/11/06 03:21:42;;;;;;;;;;;15.70;69.60;;;;;;4265629;27;20397;-74
2021/11/06 03:23:45;;;;;;;;;;;15.70;69.60;;;;;;4254509;27;20291;-73
2021/11/06 03:25:48;;;;;;;;;;;15.70;69.60;;;;;;4245119;27;19923;-74
2021/11/06 03:27:52;;;;;;;;;;;15.70;69.60;;;;;;4263223;27;20325;-74
2021/11/06 03:29:55;;;;;;;;;;;15.70;69.60;;;;;;4254472;27;19941;-73
2021/11/06 03:31:57;;;;;;;;;;;15.70;69.60;;;;;;4265493;27;20260;-74
2021/11/06 03:34:00;;;;;;;;;;;15.70;69.60;;;;;;4236555;27;19919;-74
2021/11/06 03:36:03;;;;;;;;;;;15.70;69.50;;;;;;4230194;28;20308;-74
2021/11/06 03:38:06;;;;;;;;;;;15.70;69.60;;;;;;4243085;27;19924;-73
2021/11/06 03:40:09;;;;;;;;;;;15.70;69.60;;;;;;4243515;27;20126;-74
2021/11/06 03:42:12;;;;;;;;;;;15.70;69.60;;;;;;4229830;28;19927;-74
2021/11/06 03:44:16;;;;;;;;;;;15.70;69.60;;;;;;4234149;27;19919;-75
2021/11/06 03:46:19;;;;;;;;;;;15.60;69.50;;;;;;4247746;27;20235;-74
2021/11/06 03:48:22;;;;;;;;;;;15.70;69.50;;;;;;4248286;27;20287;-74
2021/11/06 03:50:24;;;;;;;;;;;15.60;69.50;;;;;;4242255;27;19931;-75
2021/11/06 03:52:28;;;;;;;;;;;15.70;69.60;;;;;;4233319;28;20324;-73
2021/11/06 03:54:30;;;;;;;;;;;15.60;69.50;;;;;;4235619;27;19927;-74
2021/11/06 03:56:33;;;;;;;;;;;15.60;69.50;;;;;;4244060;27;19919;-74
2021/11/06 03:58:36;;;;;;;;;;;15.60;69.50;;;;;;4246675;27;19920;-73
2021/11/06 04:00:40;;;;;;;;;;;15.60;69.50;;;;;;4235577;27;20252;-74
2021/11/06 04:02:43;;;;;;;;;;;15.60;69.50;;;;;;4247650;27;19926;-74
2021/11/06 04:04:46;;;;;;;;;;;15.60;69.40;;;;;;4239748;27;19919;-74
2021/11/06 04:06:49;;;;;;;;;;;15.60;69.40;;;;;;4242891;27;19927;-74
2021/11/06 04:08:54;;;;;;;;;;;15.60;69.50;;;;;;4246333;27;19935;-74
2021/11/06 04:10:56;;;;;;;;;;;15.60;69.50;;;;;;4236380;27;19919;-74
2021/11/06 04:12:59;;;;;;;;;;;15.60;69.40;;;;;;4246280;27;20359;-74
2021/11/06 04:15:02;;;;;;;;;;;15.60;69.40;;;;;;4240225;27;20420;-74
2021/11/06 04:17:06;;;;;;;;;;;15.60;69.40;;;;;;4242293;27;19926;-74
2021/11/06 04:19:10;;;;;;;;;;;15.60;69.50;;;;;;4246519;27;19927;-74
2021/11/06 04:21:13;;;;;;;;;;;15.50;69.40;;;;;;4236634;27;19927;-74
2021/11/06 04:23:15;;;;;;;;;;;15.60;69.50;;;;;;4248360;27;19919;-74
2021/11/06 04:25:19;;;;;;;;;;;15.60;69.40;;;;;;4242010;27;20298;-74
2021/11/06 04:27:21;;;;;;;;;;;15.60;69.50;;;;;;4236509;27;19919;-74
2021/11/06 04:29:24;;;;;;;;;;;15.50;69.40;;;;;;4231472;28;19920;-74
2021/11/06 04:31:31;;;;;;;;;;;15.60;69.40;;;;;;4241805;27;19919;-73
2021/11/06 04:33:35;;;;;;;;;;;15.50;69.30;;;;;;4230559;28;19919;-74
2021/11/06 04:35:38;;;;;;;;;;;15.60;69.40;;;;;;4234837;27;19919;-74
2021/11/06 04:37:41;;;;;;;;;;;15.50;69.40;;;;;;4236014;27;19920;-74
2021/11/06 04:39:43;;;;;;;;;;;15.50;69.30;;;;;;4231241;27;19919;-74
2021/11/06 04:41:46;;;;;;;;;;;15.50;69.30;;;;;;4243324;27;19926;-74
2021/11/06 04:43:49;;;;;;;;;;;15.50;69.30;;;;;;4247126;27;19919;-74
2021/11/06 04:45:51;;;;;;;;;;;15.50;69.30;;;;;;4242582;27;19949;-74
2021/11/06 04:47:54;;;;;;;;;;;15.50;69.30;;;;;;4237275;27;20296;-74
2021/11/06 04:49:58;;;;;;;;;;;15.50;69.30;;;;;;4237774;27;19919;-74
2021/11/06 04:52:01;;;;;;;;;;;15.50;69.40;;;;;;4234552;27;19927;-74
2021/11/06 04:54:04;;;;;;;;;;;15.50;69.30;;;;;;4247128;27;20394;-74
2021/11/06 04:56:06;;;;;;;;;;;15.50;69.40;;;;;;4242361;27;19920;-74
2021/11/06 04:58:09;;;;;;;;;;;15.50;69.30;;;;;;4238877;27;19926;-73
2021/11/06 05:00:13;;;;;;;;;;;15.50;69.30;;;;;;4247366;27;19923;-74
2021/11/06 05:02:16;;;;;;;;;;;15.50;69.30;;;;;;4242670;27;19919;-75
2021/11/06 05:04:19;;;;;;;;;;;15.40;69.30;;;;;;4231204;28;20371;-73
2021/11/06 05:06:23;;;;;;;;;;;15.50;69.30;;;;;;4234402;27;19919;-74
2021/11/06 05:08:26;;;;;;;;;;;15.50;69.30;;;;;;4239111;27;19920;-74
2021/11/06 05:10:28;;;;;;;;;;;15.40;69.30;;;;;;4228508;28;19920;-73
2021/11/06 05:12:31;;;;;;;;;;;15.40;69.20;;;;;;4241846;27;19926;-73
2021/11/06 05:14:34;;;;;;;;;;;15.40;69.20;;;;;;4230091;27;19920;-73
2021/11/06 05:16:37;;;;;;;;;;;15.40;69.20;;;;;;4232182;27;20279;-73
2021/11/06 05:18:39;;;;;;;;;;;15.40;69.30;;;;;;4239303;27;19931;-74
2021/11/06 05:20:43;;;;;;;;;;;15.40;69.30;;;;;;4230059;28;19924;-73
2021/11/06 05:22:47;;;;;;;;;;;15.40;69.30;;;;;;4241559;27;19920;-73
2021/11/06 05:24:50;;;;;;;;;;;15.40;69.30;;;;;;4235122;27;19924;-73
2021/11/06 05:26:53;;;;;;;;;;;15.40;69.30;;;;;;4231833;27;19935;-73
2021/11/06 05:28:56;;;;;;;;;;;15.40;69.10;;;;;;4218589;28;19963;-74
2021/11/06 05:30:59;;;;;;;;;;;15.40;69.20;;;;;;4246795;27;20371;-74
2021/11/06 05:33:01;;;;;;;;;;;15.40;69.30;;;;;;4235826;27;19977;-74
2021/11/06 05:35:05;;;;;;;;;;;15.40;69.20;;;;;;4244439;27;19931;-74
2021/11/06 05:37:07;;;;;;;;;;;15.40;69.30;;;;;;4242937;27;20295;-74
2021/11/06 05:39:12;;;;;;;;;;;15.40;69.20;;;;;;4235950;28;20279;-74
2021/11/06 05:41:16;;;;;;;;;;;15.40;69.20;;;;;;4246413;27;19992;-73
2021/11/06 05:43:18;;;;;;;;;;;15.40;69.20;;;;;;4241890;27;19919;-74
2021/11/06 05:45:22;;;;;;;;;;;15.40;69.20;;;;;;4246655;27;20047;-74
2021/11/06 05:47:24;;;;;;;;;;;15.30;69.10;;;;;;4242357;27;19919;-74
2021/11/06 05:49:31;;;;;;;;;;;15.30;69.10;;;;;;4237422;28;19973;-73
2021/11/06 05:51:34;;;;;;;;;;;15.30;69.20;;;;;;4229770;28;19920;-75
2021/11/06 05:53:37;;;;;;;;;;;15.30;69.20;;;;;;4238929;28;20565;-74
2021/11/06 05:55:41;;;;;;;;;;;15.30;69.20;;;;;;4232327;27;20298;-74
2021/11/06 05:57:44;;;;;;;;;;;15.30;69.10;;;;;;4230895;28;19942;-74
2021/11/06 05:59:47;;;;;;;;;;;15.30;69.20;;;;;;4241022;28;20535;-74
2021/11/06 06:01:50;;;;;;;;;;;15.30;69.30;;;;;;4228235;28;19924;-75
2021/11/06 06:03:53;;;;;;;;;;;15.30;69.10;;;;;;4238208;28;19923;-74
2021/11/06 06:05:55;;;;;;;;;;;15.30;69.10;;;;;;4232717;27;19928;-74
2021/11/06 06:07:58;;;;;;;;;;;15.30;69.10;;;;;;4231942;28;19920;-75
2021/11/06 06:10:01;;;;;;;;;;;15.30;69.10;;;;;;4246441;27;19920;-74
2021/11/06 06:12:06;;;;;;;;;;;15.30;69.10;;;;;;4244870;28;20371;-74
2021/11/06 06:14:09;;;;;;;;;;;15.30;69.10;;;;;;4236345;28;19919;-74
2021/11/06 06:16:11;;;;;;;;;;;15.30;69.10;;;;;;4242108;28;20012;-74
2021/11/06 06:18:14;;;;;;;;;;;15.30;69.00;;;;;;4244837;27;19927;-74
2021/11/06 06:20:17;;;;;;;;;;;15.30;69.00;;;;;;4231047;27;19920;-74
2021/11/06 06:22:22;;;;;;;;;;;15.30;69.10;;;;;;4229317;28;20275;-74
2021/11/06 06:24:25;;;;;;;;;;;15.20;69.00;;;;;;4236891;28;20378;-74
2021/11/06 06:26:27;;;;;;;;;;;15.20;69.00;;;;;;4234144;27;19919;-74
2021/11/06 06:28:31;;;;;;;;;;;15.20;69.00;;;;;;4231795;27;19920;-74
2021/11/06 06:30:35;;;;;;;;;;;15.20;69.00;;;;;;4244511;27;19919;-74
2021/11/06 06:32:38;;;;;;;;;;;15.20;69.00;;;;;;4233348;28;19926;-74
2021/11/06 06:34:41;;;;;;;;;;;15.20;69.00;;;;;;4241494;27;19919;-74
2021/11/06 06:36:43;;;;;;;;;;;15.20;69.00;;;;;;4260811;27;19919;-74
2021/11/06 06:38:46;;;;;;;;;;;15.20;69.00;;;;;;4264637;27;20314;-74
2021/11/06 06:40:49;;;;;;;;;;;15.20;68.90;;;;;;4252377;27;19941;-74
2021/11/06 06:42:52;;;;;;;;;;;15.20;68.90;;;;;;4249081;27;19927;-74
2021/11/06 06:44:56;;;;;;;;;;;15.20;69.00;;;;;;4255341;27;19926;-74
2021/11/06 06:47:00;;;;;;;;;;;15.20;69.00;;;;;;4255074;27;19972;-74
2021/11/06 06:49:03;;;;;;;;;;;15.20;69.00;;;;;;4256576;27;19919;-74
2021/11/06 06:51:05;;;;;;;;;;;15.20;68.90;;;;;;4250757;27;19927;-73
2021/11/06 06:53:08;;;;;;;;;;;15.20;68.90;;;;;;4247786;27;20339;-73
2021/11/06 06:55:11;;;;;;;;;;;15.20;68.90;;;;;;4261832;27;20355;-72
2021/11/06 06:57:14;;;;;;;;;;;15.20;68.90;;;;;;4255796;27;19927;-73
2021/11/06 06:59:17;;;;;;;;;;;15.10;68.80;;;;;;4249304;27;20110;-74
2021/11/06 07:01:21;;;;;;;;;;;15.20;68.80;;;;;;4260932;27;20324;-76
2021/11/06 07:03:23;;;;;;;;;;;15.20;68.90;;;;;;4248705;27;19919;-74
2021/11/06 07:05:26;;;;;;;;;;;15.10;68.70;;;;;;4253480;27;19926;-74
2021/11/06 07:07:29;;;;;;;;;;;15.10;68.70;;;;;;4256782;27;19926;-74
2021/11/06 07:09:31;;;;;;;;;;;15.10;68.70;;;;;;4248792;27;19919;-74
2021/11/06 07:11:35;;;;;;;;;;;15.10;68.70;;;;;;4261560;27;19919;-75
2021/11/06 07:13:38;;;;;;;;;;;15.10;68.70;;;;;;4249422;27;19919;-74
2021/11/06 07:15:40;;;;;;;;;;;15.20;68.80;;;;;;4253156;27;19988;-73
2021/11/06 07:17:44;;;;;;;;;;;15.10;68.80;;;;;;4257523;27;19963;-74
2021/11/06 07:19:47;;;;;;;;;;;15.10;68.70;;;;;;4265653;27;19919;-73
2021/11/06 07:21:50;;;;;;;;;;;15.10;68.80;;;;;;4252606;27;19931;-73
2021/11/06 07:23:53;;;;;;;;;;;15.10;68.70;;;;;;4265312;27;19923;-73
2021/11/06 07:26:00;;;;;;;;;;;15.10;68.80;;;;;;4262562;27;20324;-73
2021/11/06 07:28:03;;;;;;;;;;;15.10;68.70;;;;;;4256648;27;19923;-75
2021/11/06 07:30:07;;;;;;;;;;;15.10;68.70;;;;;;4266018;27;19919;-73
2021/11/06 07:32:10;;;;;;;;;;;15.10;68.60;;;;;;4253364;27;19927;-75
2021/11/06 07:34:15;;;;;;;;;;;15.10;68.70;;;;;;4265432;27;19919;-74
2021/11/06 07:36:18;;;;;;;;;;;15.10;68.70;;;;;;4243792;27;19920;-74
2021/11/06 07:38:20;;;;;;;;;;;15.10;68.70;;;;;;4259577;27;19948;-76
2021/11/06 07:40:23;;;;;;;;;;;15.10;68.70;;;;;;4252625;27;19930;-75
2021/11/06 07:42:26;;;;;;;;;;;15.10;68.60;;;;;;4256441;27;19919;-74
2021/11/06 07:44:29;;;;;;;;;;;15.10;68.60;;;;;;4247454;27;19919;-74
2021/11/06 07:46:32;;;;;;;;;;;15.10;68.60;;;;;;4261266;27;19929;-74
2021/11/06 07:48:35;;;;;;;;;;;15.10;68.60;;;;;;4264054;27;20294;-73
2021/11/06 07:50:40;;;;;;;;;;;15.10;68.60;;;;;;4252911;27;19919;-73
2021/11/06 07:52:42;;;;;;;;;;;15.10;68.60;;;;;;4254209;27;19919;-73
2021/11/06 07:54:45;;;;;;;;;;;15.10;68.60;;;;;;4264300;27;19987;-74
2021/11/06 07:56:48;;;;;;;;;;;15.10;68.60;;;;;;4263935;27;20362;-73
2021/11/06 07:58:50;;;;;;;;;;;15.10;68.60;;;;;;4254228;27;20355;-74
2021/11/06 08:00:53;;;;;;;;;;;15.10;68.60;;;;;;4265551;27;20306;-73
2021/11/06 08:02:56;;;;;;;;;;;15.10;68.60;;;;;;4254902;27;19919;-74
2021/11/06 08:04:59;;;;;;;;;;;15.10;68.60;;;;;;4262095;27;19919;-73
2021/11/06 08:07:03;;;;;;;;;;;15.00;68.60;;;;;;4263370;27;19919;-73
2021/11/06 08:09:06;;;;;;;;;;;15.10;68.60;;;;;;4253171;27;19919;-74
2021/11/06 08:11:09;;;;;;;;;;;15.10;68.60;;;;;;4264345;27;20314;-74
2021/11/06 08:13:12;;;;;;;;;;;15.10;68.60;;;;;;4259937;27;20436;-74
2021/11/06 08:15:15;;;;;;;;;;;15.00;68.40;;;;;;4251032;27;20375;-74
2021/11/06 08:17:18;;;;;;;;;;;15.10;68.50;;;;;;4248973;27;19918;-73
2021/11/06 08:19:21;;;;;;;;;;;15.10;68.60;;;;;;4259522;27;20367;-73
2021/11/06 08:21:24;;;;;;;;;;;15.10;68.70;;;;;;4250732;27;20284;-74
2021/11/06 08:23:28;;;;;;;;;;;15.10;68.60;;;;;;4258530;27;19919;-74
2021/11/06 08:25:30;;;;;;;;;;;15.10;68.70;;;;;;4268774;27;19919;-73
2021/11/06 08:27:34;;;;;;;;;;;15.10;68.50;;;;;;4265718;27;19927;-73
2021/11/06 08:29:36;;;;;;;;;;;15.10;68.70;;;;;;4260282;27;19927;-75
2021/11/06 08:31:39;;;;;;;;;;;15.00;68.70;;;;;;4247631;27;19942;-74
2021/11/06 08:33:42;;;;;;;;;;;15.10;68.70;;;;;;4254372;27;20317;-74
2021/11/06 08:35:44;;;;;;;;;;;15.10;68.70;;;;;;4252301;27;20410;-74
2021/11/06 08:37:48;;;;;;;;;;;15.10;68.70;;;;;;4258431;27;19922;-75
2021/11/06 08:39:52;;;;;;;;;;;15.10;68.70;;;;;;4258878;27;19926;-74
2021/11/06 08:41:55;;;;;;;;;;;15.10;68.70;;;;;;4247319;27;19919;-74
2021/11/06 08:43:58;;;;;;;;;;;15.10;68.80;;;;;;4252825;27;19926;-72
2021/11/06 08:46:01;;;;;;;;;;;15.10;68.70;;;;;;4255815;27;19926;-73
2021/11/06 08:48:04;;;;;;;;;;;15.10;68.70;;;;;;4251271;27;19927;-73
2021/11/06 08:50:13;;;;;;;;;;;15.10;68.70;;;;;;4253785;27;19926;-74
2021/11/06 08:52:20;;;;;;;;;;;15.10;68.70;;;;;;4263622;27;19972;-74
2021/11/06 08:54:23;;;;;;;;;;;15.10;68.70;;;;;;4238139;27;19920;-74
2021/11/06 08:56:28;;;;;;;;;;;15.10;68.70;;;;;;4240531;27;19919;-74
2021/11/06 08:58:32;;;;;;;;;;;15.10;68.70;;;;;;4262519;27;19926;-74
2021/11/06 09:00:37;;;;;;;;;;;15.10;68.60;;;;;;4250188;27;19926;-74
2021/11/06 09:02:39;;;;;;;;;;;15.10;68.60;;;;;;4264008;27;20476;-73
2021/11/06 09:04:42;;;;;;;;;;;15.10;68.60;;;;;;4262656;27;19922;-74
2021/11/06 09:06:45;;;;;;;;;;;15.10;68.60;;;;;;4251955;27;20298;-74
2021/11/06 09:08:49;;;;;;;;;;;15.10;68.60;;;;;;4247976;27;19983;-73
2021/11/06 09:10:55;;;;;;;;;;;15.10;68.60;;;;;;4258457;27;19923;-74
2021/11/06 09:12:59;;;;;;;;;;;15.10;68.70;;;;;;4228478;28;20445;-74
2021/11/06 09:15:02;;;;;;;;;;;15.20;68.60;;;;;;4253792;27;19926;-74
2021/11/06 09:17:04;;;;;;;;;;;15.10;68.60;;;;;;4252282;27;19939;-73
2021/11/06 09:19:07;;;;;;;;;;;15.10;68.40;;;;;;4248215;27;20477;-77
2021/11/06 09:21:10;;;;;;;;;;;15.20;68.50;;;;;;4258252;27;19919;-75
2021/11/06 09:23:13;;;;;;;;;;;15.10;68.40;;;;;;4228518;28;19926;-74
2021/11/06 09:25:16;;;;;;;;;;;15.20;68.40;;;;;;4252938;27;19918;-75
2021/11/06 09:27:19;;;;;;;;;;;15.20;68.40;;;;;;4252949;27;19919;-73
2021/11/06 09:29:23;;;;;;;;;;;15.20;68.40;;;;;;4247271;27;19964;-74
2021/11/06 09:31:26;;;;;;;;;;;15.20;68.40;;;;;;4257811;27;19926;-74
2021/11/06 09:33:30;;;;;;;;;;;15.20;68.40;;;;;;4246537;27;20405;-73
2021/11/06 09:35:33;;;;;;;;;;;15.20;68.40;;;;;;4251614;27;19919;-74
2021/11/06 09:37:36;;;;;;;;;;;15.20;68.40;;;;;;4253567;27;19961;-74
2021/11/06 09:39:38;;;;;;;;;;;15.20;68.40;;;;;;4246893;27;19926;-74
2021/11/06 09:41:41;;;;;;;;;;;15.20;68.40;;;;;;4250067;27;20307;-75
2021/11/06 09:43:45;;;;;;;;;;;15.20;68.50;;;;;;4263356;27;19919;-74
2021/11/06 09:45:50;;;;;;;;;;;15.20;68.50;;;;;;4259398;27;19919;-74
2021/11/06 09:47:53;;;;;;;;;;;15.20;68.70;;;;;;4254502;27;19919;-74
2021/11/06 09:49:56;;;;;;;;;;;15.20;68.60;;;;;;4261175;27;19923;-72
2021/11/06 09:51:58;;;;;;;;;;;15.20;68.50;;;;;;4266453;27;19915;-74
2021/11/06 09:54:03;;;;;;;;;;;15.20;68.50;;;;;;4248619;28;19927;-75
2021/11/06 09:56:06;;;;;;;;;;;15.20;68.50;;;;;;4262292;27;19919;-75
2021/11/06 09:58:09;;;;;;;;;;;15.30;68.60;;;;;;4258739;27;19925;-75
2021/11/06 10:00:13;;;;;;;;;;;15.20;68.70;;;;;;4266356;27;19923;-74
2021/11/06 10:02:17;;;;;;;;;;;15.20;69.80;;;;;;4243557;27;19923;-75
2021/11/06 10:04:22;;;;;;;;;;;15.30;70.00;;;;;;4251595;27;19935;-75
2021/11/06 10:06:26;;;;;;;;;;;15.30;69.80;;;;;;4262481;27;19923;-74
2021/11/06 10:08:30;;;;;;;;;;;15.30;69.70;;;;;;4260665;27;19920;-75
2021/11/06 10:10:35;;;;;;;;;;;15.30;69.50;;;;;;4250939;27;19927;-75
2021/11/06 10:12:47;;;;;;;;;;;15.30;69.30;;;;;;4262598;27;19963;-74
2021/11/06 10:15:00;;;;;;;;;;;15.30;69.40;;;;;;4250169;27;20564;-75
2021/11/06 10:17:03;;;;;;;;;;;15.30;69.30;;;;;;4253702;27;19919;-75
2021/11/06 10:19:09;;;;;;;;;;;15.40;69.20;;;;;;4260518;27;19919;-74
2021/11/06 10:21:12;;;;;;;;;;;15.40;69.10;;;;;;4263993;27;19918;-73
2021/11/06 10:23:14;;;;;;;;;;;15.40;69.00;;;;;;4251482;27;19926;-74
2021/11/06 10:25:18;;;;;;;;;;;15.40;68.80;;;;;;4249180;27;19920;-74
2021/11/06 10:27:22;;;;;;;;;;;15.40;68.70;;;;;;4254623;27;19918;-75
2021/11/06 10:29:29;;;;;;;;;;;15.40;68.70;;;;;;4254856;27;19919;-75
2021/11/06 10:31:33;;;;;;;;;;;15.40;68.50;;;;;;4250316;27;19919;-74
2021/11/06 10:33:43;;;;;;;;;;;15.40;68.50;;;;;;4260558;27;19919;-74
2021/11/06 10:35:48;;;;;;;;;;;15.40;68.40;;;;;;4249554;27;19919;-75
2021/11/06 10:37:56;;;;;;;;;;;15.50;68.40;;;;;;4236334;27;20314;-76
2021/11/06 10:40:00;;;;;;;;;;;15.50;68.40;;;;;;4262759;27;19919;-74
2021/11/06 10:42:09;;;;;;;;;;;15.50;68.30;;;;;;4254449;27;19934;-75
2021/11/06 10:44:12;;;;;;;;;;;15.50;68.30;;;;;;4243301;27;19942;-75
2021/11/06 10:46:22;;;;;;;;;;;15.50;68.20;;;;;;4251553;27;19923;-74
2021/11/06 10:48:26;;;;;;;;;;;15.50;68.20;;;;;;4258243;27;19963;-75
2021/11/06 10:50:39;;;;;;;;;;;15.50;68.20;;;;;;4253526;27;19919;-74
2021/11/06 10:52:46;;;;;;;;;;;15.50;68.10;;;;;;4255615;27;19926;-74
2021/11/06 10:54:59;;;;;;;;;;;15.50;68.10;;;;;;4260037;27;19923;-75
2021/11/06 10:57:03;;;;;;;;;;;15.50;68.10;;;;;;4268803;27;19919;-75
2021/11/06 10:59:07;;;;;;;;;;;15.50;68.00;;;;;;4236714;27;19946;-77
2021/11/06 11:01:12;;;;;;;;;;;15.50;68.00;;;;;;4231584;28;19923;-74
2021/11/06 11:03:21;;;;;;;;;;;15.50;68.00;;;;;;4252527;27;20320;-75
2021/11/06 11:05:35;;;;;;;;;;;15.50;68.00;;;;;;4256967;27;19919;-75
2021/11/06 11:07:38;;;;;;;;;;;15.50;67.90;;;;;;4249826;27;19919;-74
2021/11/06 11:09:42;;;;;;;;;;;15.50;67.90;;;;;;4260836;27;19963;-74
2021/11/06 11:11:45;;;;;;;;;;;15.50;67.90;;;;;;4249257;27;19919;-75
2021/11/06 11:13:49;;;;;;;;;;;15.50;67.90;;;;;;4253160;27;19919;-75
2021/11/06 11:15:52;;;;;;;;;;;15.50;67.90;;;;;;4256690;27;19923;-74
2021/11/06 11:17:55;;;;;;;;;;;15.50;67.90;;;;;;4249060;27;19927;-74
2021/11/06 11:19:57;;;;;;;;;;;15.50;67.90;;;;;;4261195;27;20437;-75
2021/11/06 11:22:01;;;;;;;;;;;15.50;67.90;;;;;;4248824;27;19972;-74
2021/11/06 11:24:04;;;;;;;;;;;15.50;67.90;;;;;;4249555;27;20309;-74
2021/11/06 11:26:08;;;;;;;;;;;15.50;67.90;;;;;;4258006;27;19923;-74
2021/11/06 11:28:12;;;;;;;;;;;15.50;67.90;;;;;;4265505;27;19919;-74
2021/11/06 11:30:15;;;;;;;;;;;15.50;67.80;;;;;;4252812;27;19948;-74
2021/11/06 11:32:18;;;;;;;;;;;15.50;67.80;;;;;;4266122;27;19918;-74
2021/11/06 11:34:21;;;;;;;;;;;15.50;67.80;;;;;;4261247;27;19930;-74
2021/11/06 11:36:25;;;;;;;;;;;15.50;67.80;;;;;;4257106;27;19919;-75
2021/11/06 11:38:28;;;;;;;;;;;15.50;67.80;;;;;;4265871;27;19923;-74
2021/11/06 11:40:32;;;;;;;;;;;15.50;67.80;;;;;;4253209;27;20000;-75
2021/11/06 11:42:46;;;;;;;;;;;15.50;67.80;;;;;;4251003;27;19972;-74
2021/11/06 11:45:01;;;;;;;;;;;15.50;67.80;;;;;;4256266;27;19926;-74
2021/11/06 11:47:05;;;;;;;;;;;15.50;67.80;;;;;;4265519;27;19927;-74
2021/11/06 11:49:08;;;;;;;;;;;15.50;67.80;;;;;;4256977;27;19919;-74
2021/11/06 11:51:11;;;;;;;;;;;15.50;67.90;;;;;;4260371;27;19919;-74
2021/11/06 11:53:21;;;;;;;;;;;15.50;68.10;;;;;;4248470;27;20376;-74
2021/11/06 11:55:32;;;;;;;;;;;15.50;68.20;;;;;;4255257;27;19926;-75
2021/11/06 11:57:35;;;;;;;;;;;15.50;68.20;;;;;;4252430;27;19964;-76